createdAt,value
2018-02-20T00:01:56.166Z,27.00
2018-02-20T00:04:23.615Z,25.67
2018-02-20T00:06:50.978Z,27.00
2018-02-20T00:09:18.345Z,26.87
2018-02-20T00:11:45.688Z,28.00
2018-02-20T00:14:13.080Z,25.67
2018-02-20T00:16:40.423Z,26.63
2018-02-20T00:19:07.848Z,25.83
2018-02-20T00:21:35.196Z,29.87
2018-02-20T00:24:02.574Z,27.03
2018-02-20T00:26:30.012Z,24.50
2018-02-20T00:28:57.364Z,26.60
2018-02-20T00:31:24.825Z,25.30
2018-02-20T00:33:52.184Z,26.77
2018-02-20T00:36:19.558Z,28.20
2018-02-20T00:38:46.992Z,28.03
2018-02-20T00:41:14.447Z,27.80
2018-02-20T00:43:41.905Z,28.03
2018-02-20T00:46:09.363Z,28.30
2018-02-20T00:48:36.820Z,27.50
2018-02-20T00:51:04.194Z,28.00
2018-02-20T00:53:31.548Z,27.87
2018-02-20T00:55:59.008Z,29.20
2018-02-20T00:58:26.357Z,27.90
2018-02-20T01:00:53.696Z,29.17
2018-02-20T01:03:21.066Z,29.27
2018-02-20T01:05:48.507Z,27.23
2018-02-20T01:08:15.894Z,27.60
2018-02-20T01:10:43.253Z,29.57
2018-02-20T01:13:10.674Z,28.90
2018-02-20T01:15:38.022Z,29.00
2018-02-20T01:18:05.487Z,31.47
2018-02-20T01:20:32.860Z,27.53
2018-02-20T01:23:00.299Z,30.37
2018-02-20T01:25:27.663Z,30.80
2018-02-20T01:27:55.111Z,30.00
2018-02-20T01:30:22.568Z,28.27
2018-02-20T01:32:49.916Z,31.17
2018-02-20T01:35:17.294Z,30.80
2018-02-20T01:37:44.638Z,30.30
2018-02-20T01:40:12.040Z,28.63
2018-02-20T01:42:39.393Z,30.10
2018-02-20T01:45:06.798Z,30.00
2018-02-20T01:47:34.142Z,30.03
2018-02-20T01:50:01.510Z,29.50
2018-02-20T01:52:28.965Z,29.23
2018-02-20T01:54:56.422Z,30.00
2018-02-20T01:57:23.823Z,29.30
2018-02-20T01:59:51.157Z,29.47
2018-02-20T02:02:18.590Z,30.23
2018-02-20T02:04:46.069Z,30.33
2018-02-20T02:07:13.504Z,30.53
2018-02-20T02:09:40.961Z,28.30
2018-02-20T02:12:08.335Z,28.33
2018-02-20T02:14:35.773Z,29.73
2018-02-20T02:17:03.114Z,30.93
2018-02-20T02:19:30.526Z,29.30
2018-02-20T02:21:57.944Z,31.83
2018-02-20T02:24:25.350Z,29.73
2018-02-20T02:26:52.711Z,31.13
2018-02-20T02:29:20.087Z,29.67
2018-02-20T02:31:47.444Z,29.27
2018-02-20T02:34:14.816Z,30.10
2018-02-20T02:36:42.178Z,29.03
2018-02-20T02:39:09.628Z,29.00
2018-02-20T02:41:37.137Z,29.93
2018-02-20T02:44:04.548Z,29.67
2018-02-20T02:46:31.999Z,33.07
2018-02-20T02:48:59.372Z,32.47
2018-02-20T02:51:26.751Z,30.87
2018-02-20T02:53:54.168Z,33.50
2018-02-20T02:56:21.633Z,29.00
2018-02-20T02:58:49.080Z,32.83
2018-02-20T03:01:16.539Z,29.63
2018-02-20T03:03:43.880Z,30.43
2018-02-20T03:06:11.351Z,31.00
2018-02-20T03:08:38.703Z,30.80
2018-02-20T03:11:06.091Z,32.47
2018-02-20T03:13:33.436Z,30.87
2018-02-20T03:16:00.784Z,31.00
2018-02-20T03:18:28.153Z,30.27
2018-02-20T03:20:55.488Z,32.00
2018-02-20T03:23:22.936Z,32.20
2018-02-20T03:25:50.286Z,29.63
2018-02-20T03:28:17.664Z,32.87
2018-02-20T03:30:45.008Z,31.03
2018-02-20T03:33:12.391Z,32.40
2018-02-20T03:35:39.740Z,30.07
2018-02-20T03:38:07.139Z,29.37
2018-02-20T03:40:34.520Z,33.80
2018-02-20T03:43:01.869Z,32.57
2018-02-20T03:45:29.240Z,32.43
2018-02-20T03:47:56.587Z,31.30
2018-02-20T03:50:24.042Z,30.93
2018-02-20T03:52:51.419Z,30.97
2018-02-20T03:55:18.786Z,33.43
2018-02-20T03:57:46.210Z,33.17
2018-02-20T04:00:13.620Z,34.10
2018-02-20T04:02:40.968Z,33.43
2018-02-20T04:05:08.371Z,33.60
2018-02-20T04:07:35.712Z,32.20
2018-02-20T04:10:03.059Z,32.10
2018-02-20T04:12:30.426Z,31.20
2018-02-20T04:14:57.766Z,32.87
2018-02-20T04:17:25.142Z,31.37
2018-02-20T04:19:52.515Z,32.33
2018-02-20T04:22:19.911Z,32.67
2018-02-20T04:24:47.320Z,32.80
2018-02-20T04:27:14.774Z,33.27
2018-02-20T04:29:42.121Z,30.60
2018-02-20T04:32:09.587Z,32.00
2018-02-20T04:34:36.936Z,32.37
2018-02-20T04:37:04.303Z,32.93
2018-02-20T04:39:31.648Z,32.57
2018-02-20T04:41:59.001Z,32.80
2018-02-20T04:44:26.363Z,33.50
2018-02-20T04:46:53.713Z,32.83
2018-02-20T04:49:21.176Z,32.73
2018-02-20T04:51:48.527Z,33.30
2018-02-20T04:54:15.911Z,32.63
2018-02-20T04:56:43.339Z,34.23
2018-02-20T04:59:10.697Z,33.07
2018-02-20T05:01:38.051Z,33.73
2018-02-20T05:04:05.414Z,34.60
2018-02-20T05:06:33.696Z,31.80
2018-02-20T05:09:01.140Z,32.50
2018-02-20T05:11:28.504Z,31.53
2018-02-20T05:13:55.854Z,33.67
2018-02-20T05:16:23.234Z,32.70
2018-02-20T05:18:50.659Z,33.83
2018-02-20T05:21:18.118Z,33.90
2018-02-20T05:23:45.454Z,33.33
2018-02-20T05:26:12.816Z,34.37
2018-02-20T05:28:40.176Z,36.27
2018-02-20T05:31:07.637Z,34.03
2018-02-20T05:33:34.984Z,35.60
2018-02-20T05:36:02.367Z,35.90
2018-02-20T05:38:29.730Z,36.07
2018-02-20T05:40:57.066Z,35.30
2018-02-20T05:43:24.446Z,37.73
2018-02-20T05:45:51.831Z,35.33
2018-02-20T05:48:19.206Z,35.13
2018-02-20T05:50:46.552Z,36.90
2018-02-20T05:53:13.941Z,35.33
2018-02-20T05:55:41.278Z,34.00
2018-02-20T05:58:08.647Z,34.93
2018-02-20T06:00:35.991Z,34.77
2018-02-20T06:03:04.376Z,37.03
2018-02-20T06:05:31.730Z,35.13
2018-02-20T06:08:01.023Z,35.53
2018-02-20T06:10:29.055Z,36.13
2018-02-20T06:12:56.411Z,36.17
2018-02-20T06:15:23.774Z,35.70
2018-02-20T06:17:51.119Z,38.87
2018-02-20T06:20:18.498Z,36.93
2018-02-20T06:22:45.877Z,36.40
2018-02-20T06:25:13.250Z,35.87
2018-02-20T06:27:40.591Z,34.80
2018-02-20T06:30:07.957Z,34.30
2018-02-20T06:32:35.398Z,33.50
2018-02-20T06:35:02.855Z,33.60
2018-02-20T06:37:30.207Z,35.17
2018-02-20T06:39:57.553Z,35.83
2018-02-20T06:42:24.940Z,35.77
2018-02-20T06:44:52.286Z,32.93
2018-02-20T06:47:19.656Z,31.60
2018-02-20T06:49:47.119Z,34.60
2018-02-20T06:52:14.486Z,32.00
2018-02-20T06:54:41.824Z,33.90
2018-02-20T06:57:09.186Z,36.73
2018-02-20T06:59:36.529Z,37.40
2018-02-20T07:02:03.895Z,37.73
2018-02-20T07:04:31.250Z,34.50
2018-02-20T07:06:58.599Z,33.60
2018-02-20T07:09:25.965Z,35.53
2018-02-20T07:11:53.348Z,34.90
2018-02-20T07:14:20.714Z,32.90
2018-02-20T07:16:48.059Z,32.47
2018-02-20T07:19:15.445Z,33.23
2018-02-20T07:21:42.908Z,35.33
2018-02-20T07:24:10.247Z,32.00
2018-02-20T07:26:37.606Z,32.40
2018-02-20T07:29:04.966Z,33.70
2018-02-20T07:31:32.427Z,31.30
2018-02-20T07:33:59.791Z,32.27
2018-02-20T07:36:27.168Z,30.20
2018-02-20T07:38:54.595Z,32.60
2018-02-20T07:41:22.049Z,33.27
2018-02-20T07:43:49.387Z,31.93
2018-02-20T07:46:16.757Z,37.10
2018-02-20T07:48:44.095Z,33.00
2018-02-20T07:51:11.467Z,30.40
2018-02-20T07:53:38.809Z,33.97
2018-02-20T07:56:06.156Z,36.80
2018-02-20T07:58:33.533Z,33.97
2018-02-20T08:01:00.871Z,34.17
2018-02-20T08:03:28.346Z,36.37
2018-02-20T08:05:55.682Z,38.47
2018-02-20T08:08:23.046Z,34.00
2018-02-20T08:10:50.396Z,34.37
2018-02-20T08:13:17.776Z,34.70
2018-02-20T08:15:45.120Z,33.43
2018-02-20T08:18:12.480Z,35.10
2018-02-20T08:20:39.853Z,33.87
2018-02-20T08:23:07.284Z,33.73
2018-02-20T08:25:34.655Z,31.27
2018-02-20T08:28:01.999Z,32.07
2018-02-20T08:30:29.378Z,31.87
2018-02-20T08:32:56.732Z,32.27
2018-02-20T08:35:24.105Z,31.87
2018-02-20T08:37:51.451Z,31.73
2018-02-20T08:40:18.791Z,31.03
2018-02-20T08:42:46.160Z,32.70
2018-02-20T08:45:13.506Z,33.50
2018-02-20T08:47:40.875Z,32.97
2018-02-20T08:50:08.244Z,32.27
2018-02-20T08:52:35.612Z,34.97
2018-02-20T08:55:02.951Z,35.57
2018-02-20T08:57:30.339Z,35.10
2018-02-20T08:59:57.690Z,31.93
2018-02-20T09:02:25.040Z,35.20
2018-02-20T09:04:52.408Z,34.20
2018-02-20T09:07:19.761Z,32.97
2018-02-20T09:09:47.128Z,32.43
2018-02-20T09:12:14.479Z,33.97
2018-02-20T09:14:41.858Z,34.17
2018-02-20T09:17:09.195Z,33.00
2018-02-20T09:19:36.597Z,35.10
2018-02-20T09:22:03.940Z,32.43
2018-02-20T09:24:31.293Z,29.70
2018-02-20T09:26:58.979Z,30.07
2018-02-20T09:29:26.315Z,33.03
2018-02-20T09:31:53.678Z,32.30
2018-02-20T09:34:21.024Z,31.37
2018-02-20T09:36:48.388Z,30.03
2018-02-20T09:39:15.744Z,31.13
2018-02-20T09:41:43.099Z,31.73
2018-02-20T09:44:10.440Z,27.90
2018-02-20T09:46:37.828Z,31.50
2018-02-20T09:49:05.174Z,29.13
2018-02-20T09:51:32.513Z,31.97
2018-02-20T09:53:59.888Z,31.90
2018-02-20T09:56:27.224Z,32.77
2018-02-20T09:58:54.599Z,40.53
2018-02-20T10:01:21.929Z,30.27
2018-02-20T10:03:49.292Z,30.30
2018-02-20T10:06:16.624Z,32.40
2018-02-20T10:08:43.994Z,34.50
2018-02-20T10:11:11.337Z,31.47
2018-02-20T10:13:38.726Z,31.23
2018-02-20T10:16:06.074Z,31.80
2018-02-20T10:18:33.451Z,31.30
2018-02-20T10:21:00.790Z,28.20
2018-02-20T10:23:28.138Z,29.37
2018-02-20T10:25:55.498Z,30.27
2018-02-20T10:28:22.834Z,28.73
2018-02-20T10:30:50.211Z,29.20
2018-02-20T10:33:17.546Z,30.20
2018-02-20T10:35:44.923Z,31.07
2018-02-20T10:38:12.263Z,31.60
2018-02-20T10:40:39.642Z,31.80
2018-02-20T10:43:06.987Z,30.60
2018-02-20T10:45:34.356Z,32.50
2018-02-20T10:48:01.699Z,31.00
2018-02-20T10:50:29.086Z,33.07
2018-02-20T10:52:56.426Z,29.00
2018-02-20T10:55:23.770Z,29.97
2018-02-20T10:57:51.135Z,27.83
2018-02-20T11:00:18.480Z,30.30
2018-02-20T11:02:45.842Z,29.33
2018-02-20T11:05:13.196Z,28.63
2018-02-20T11:07:40.608Z,28.33
2018-02-20T11:10:07.924Z,29.43
2018-02-20T11:12:35.299Z,29.80
2018-02-20T11:15:02.732Z,29.43
2018-02-20T11:17:30.102Z,31.47
2018-02-20T11:19:57.544Z,30.27
2018-02-20T11:22:24.943Z,30.40
2018-02-20T11:24:52.357Z,29.90
2018-02-20T11:27:19.807Z,31.07
2018-02-20T11:29:47.199Z,29.73
2018-02-20T11:32:14.548Z,29.30
2018-02-20T11:34:41.906Z,28.23
2018-02-20T11:37:09.258Z,30.03
2018-02-20T11:39:36.618Z,30.70
2018-02-20T11:42:04.045Z,29.87
2018-02-20T11:44:31.437Z,30.03
2018-02-20T11:46:58.830Z,31.27
2018-02-20T11:49:26.204Z,33.27
2018-02-20T11:51:53.545Z,32.57
2018-02-20T11:54:20.891Z,32.60
2018-02-20T11:56:48.253Z,29.97
2018-02-20T11:59:15.594Z,30.23
2018-02-20T12:01:42.963Z,28.43
2018-02-20T12:04:10.693Z,28.27
2018-02-20T12:06:38.060Z,29.83
2018-02-20T12:09:05.417Z,27.40
2018-02-20T12:11:32.923Z,30.30
2018-02-20T12:14:00.341Z,30.20
2018-02-20T12:16:27.729Z,30.87
2018-02-20T12:18:55.094Z,34.83
2018-02-20T12:21:22.437Z,33.10
2018-02-20T12:23:49.804Z,31.53
2018-02-20T12:26:17.144Z,33.97
2018-02-20T12:28:44.522Z,30.97
2018-02-20T12:31:11.857Z,32.67
2018-02-20T12:33:39.247Z,30.63
2018-02-20T12:36:06.601Z,32.23
2018-02-20T12:38:33.939Z,29.30
2018-02-20T12:41:01.319Z,28.90
2018-02-20T12:43:28.663Z,31.47
2018-02-20T12:45:56.032Z,30.50
2018-02-20T12:48:23.374Z,31.80
2018-02-20T12:50:50.753Z,31.13
2018-02-20T12:53:18.101Z,30.40
2018-02-20T12:55:45.497Z,31.30
2018-02-20T12:58:12.840Z,33.00
2018-02-20T13:00:40.183Z,28.70
2018-02-20T13:03:07.833Z,30.53
2018-02-20T13:05:35.202Z,30.47
2018-02-20T13:08:02.572Z,30.43
2018-02-20T13:10:29.908Z,29.60
2018-02-20T13:12:57.286Z,68.37
2018-02-20T13:15:24.657Z,59.37
2018-02-20T13:17:52.111Z,30.80
2018-02-20T13:20:19.452Z,29.43
2018-02-20T13:22:46.923Z,28.40
2018-02-20T13:25:14.262Z,30.57
2018-02-20T13:27:41.655Z,30.67
2018-02-20T13:30:08.995Z,30.90
2018-02-20T13:32:36.444Z,27.60
2018-02-20T13:35:03.842Z,28.23
2018-02-20T13:37:31.171Z,28.53
2018-02-20T13:39:58.553Z,29.07
2018-02-20T13:42:25.886Z,30.87
2018-02-20T13:44:53.294Z,29.77
2018-02-20T13:47:20.616Z,29.50
2018-02-20T13:49:48.029Z,30.60
2018-02-20T13:52:15.367Z,29.27
2018-02-20T13:54:42.703Z,28.50
2018-02-20T13:57:10.095Z,30.07
2018-02-20T13:59:37.430Z,28.37
2018-02-20T14:02:04.791Z,28.20
2018-02-20T14:04:32.146Z,28.50
2018-02-20T14:06:59.518Z,29.03
2018-02-20T14:09:26.864Z,26.87
2018-02-20T14:11:54.234Z,28.17
2018-02-20T14:14:21.680Z,28.53
2018-02-20T14:16:49.036Z,28.40
2018-02-20T14:19:16.491Z,29.10
2018-02-20T14:21:43.835Z,29.27
2018-02-20T14:24:11.200Z,26.90
2018-02-20T14:26:38.544Z,28.70
2018-02-20T14:29:05.912Z,27.40
2018-02-20T14:31:33.254Z,28.13
2018-02-20T14:34:00.631Z,28.70
2018-02-20T14:36:27.969Z,26.47
2018-02-20T14:38:55.355Z,26.40
2018-02-20T14:41:22.708Z,27.30
2018-02-20T14:43:50.042Z,28.60
2018-02-20T14:46:17.410Z,26.73
2018-02-20T14:48:44.756Z,29.67
2018-02-20T14:51:12.126Z,29.30
2018-02-20T14:53:39.463Z,27.73
2018-02-20T14:56:06.838Z,28.50
2018-02-20T14:58:34.188Z,31.30
2018-02-20T15:01:01.627Z,28.20
2018-02-20T15:03:28.983Z,27.10
2018-02-20T15:05:56.346Z,28.37
2018-02-20T15:08:23.724Z,27.93
2018-02-20T15:10:51.083Z,26.73
2018-02-20T15:13:18.418Z,26.17
2018-02-20T15:15:45.756Z,26.03
2018-02-20T15:18:13.214Z,25.97
2018-02-20T15:20:40.553Z,23.97
2018-02-20T15:23:07.915Z,26.40
2018-02-20T15:25:35.259Z,27.83
2018-02-20T15:28:02.732Z,25.13
2018-02-20T15:30:30.071Z,25.17
2018-02-20T15:32:57.435Z,25.93
2018-02-20T15:35:24.775Z,26.93
2018-02-20T15:37:52.259Z,26.23
2018-02-20T15:40:19.678Z,23.87
2018-02-20T15:42:47.913Z,25.90
2018-02-20T15:45:15.409Z,27.37
2018-02-20T15:47:42.749Z,27.43
2018-02-20T15:50:10.115Z,26.03
2018-02-20T15:52:37.451Z,27.50
2018-02-20T15:55:04.823Z,27.00
2018-02-20T15:57:32.162Z,30.30
2018-02-20T15:59:59.530Z,27.37
2018-02-20T16:02:26.867Z,27.70
2018-02-20T16:04:54.245Z,25.13
2018-02-20T16:07:21.592Z,26.70
2018-02-20T16:09:48.934Z,26.73
2018-02-20T16:12:16.306Z,26.00
2018-02-20T16:14:43.657Z,24.67
2018-02-20T16:17:11.060Z,24.67
2018-02-20T16:19:38.398Z,25.57
2018-02-20T16:22:05.764Z,31.00
2018-02-20T16:24:33.111Z,28.03
2018-02-20T16:27:00.480Z,28.33
2018-02-20T16:29:27.828Z,28.73
2018-02-20T16:31:55.192Z,27.60
2018-02-20T16:34:22.539Z,26.70
2018-02-20T16:36:49.932Z,29.10
2018-02-20T16:39:17.317Z,27.60
2018-02-20T16:41:44.629Z,27.30
2018-02-20T16:44:11.991Z,27.77
2018-02-20T16:46:39.336Z,26.70
2018-02-20T16:49:06.699Z,28.50
2018-02-20T16:51:34.126Z,29.03
2018-02-20T16:54:01.491Z,28.83
2018-02-20T16:56:28.825Z,27.77
2018-02-20T16:58:56.201Z,26.83
2018-02-20T17:01:23.542Z,29.77
2018-02-20T17:03:50.884Z,29.10
2018-02-20T17:06:18.259Z,30.07
2018-02-20T17:08:45.602Z,30.07
2018-02-20T17:11:13.068Z,27.73
2018-02-20T17:13:40.407Z,28.27
2018-02-20T17:16:07.880Z,30.50
2018-02-20T17:18:35.336Z,29.60
2018-02-20T17:21:02.702Z,27.80
2018-02-20T17:23:30.053Z,29.23
2018-02-20T17:25:57.426Z,30.17
2018-02-20T17:28:24.766Z,29.13
2018-02-20T17:30:52.213Z,29.97
2018-02-20T17:33:19.583Z,28.80
2018-02-20T17:35:46.923Z,29.87
2018-02-20T17:38:14.384Z,28.63
2018-02-20T17:40:41.724Z,30.70
2018-02-20T17:43:09.192Z,30.50
2018-02-20T17:45:36.535Z,33.17
2018-02-20T17:48:03.909Z,32.37
2018-02-20T17:50:31.277Z,31.57
2018-02-20T17:52:58.714Z,31.40
2018-02-20T17:55:26.048Z,32.27
2018-02-20T17:57:53.395Z,33.10
2018-02-20T18:00:20.757Z,34.70
2018-02-20T18:02:48.096Z,34.90
2018-02-20T18:05:15.467Z,32.97
2018-02-20T18:07:42.803Z,34.40
2018-02-20T18:10:10.176Z,34.10
2018-02-20T18:12:37.524Z,33.13
2018-02-20T18:15:04.895Z,34.60
2018-02-20T18:17:32.232Z,34.20
2018-02-20T18:19:59.671Z,35.10
2018-02-20T18:22:27.062Z,35.07
2018-02-20T18:24:54.431Z,35.37
2018-02-20T18:27:21.787Z,34.13
2018-02-20T18:29:49.162Z,36.13
2018-02-20T18:32:16.504Z,35.80
2018-02-20T18:34:43.950Z,35.63
2018-02-20T18:37:11.318Z,52.40
2018-02-20T18:39:38.762Z,67.63
2018-02-20T18:42:06.227Z,31.47
2018-02-20T18:44:33.592Z,33.47
2018-02-20T18:47:00.964Z,34.13
2018-02-20T18:49:28.389Z,34.00
2018-02-20T18:51:55.759Z,32.57
2018-02-20T18:54:23.432Z,37.50
2018-02-20T18:56:50.812Z,33.17
2018-02-20T18:59:18.156Z,34.50
2018-02-20T19:01:45.506Z,32.37
2018-02-20T19:04:12.879Z,32.87
2018-02-20T19:06:40.219Z,31.70
2018-02-20T19:09:07.595Z,36.30
2018-02-20T19:11:34.934Z,41.23
2018-02-20T19:16:55.066Z,39.33
2018-02-20T19:19:22.435Z,36.87
2018-02-20T19:21:49.817Z,38.70
2018-02-20T19:24:17.187Z,38.07
2018-02-20T19:26:44.526Z,37.90
2018-02-20T19:29:11.970Z,37.63
2018-02-20T19:31:39.334Z,40.20
2018-02-20T19:34:06.670Z,38.10
2018-02-20T19:36:34.042Z,35.63
2018-02-20T19:39:01.389Z,37.90
2018-02-20T19:41:28.778Z,37.77
2018-02-20T19:43:56.122Z,39.93
2018-02-20T19:46:23.551Z,40.57
2018-02-20T19:48:50.881Z,37.90
2018-02-20T19:51:18.257Z,38.20
2018-02-20T19:53:45.601Z,39.87
2018-02-20T19:56:12.952Z,38.00
2018-02-20T19:58:40.318Z,41.00
2018-02-20T20:01:07.669Z,40.00
2018-02-20T20:03:35.041Z,42.47
2018-02-20T20:06:02.397Z,38.40
2018-02-20T20:08:29.771Z,38.70
2018-02-20T20:10:57.191Z,39.20
2018-02-20T20:13:24.567Z,38.80
2018-02-20T20:15:51.906Z,39.87
2018-02-20T20:18:19.281Z,38.17
2018-02-20T20:20:48.058Z,36.90
2018-02-20T20:23:14.040Z,40.13
2018-02-20T20:25:41.399Z,39.43
2018-02-20T20:28:08.764Z,36.00
2018-02-20T20:30:36.259Z,35.33
2018-02-20T20:33:03.616Z,38.00
2018-02-20T20:35:31.002Z,39.23
2018-02-20T20:37:58.353Z,34.53
2018-02-20T20:40:25.720Z,35.90
2018-02-20T20:42:53.069Z,34.60
2018-02-20T20:45:20.433Z,35.20
2018-02-20T20:47:47.780Z,36.83
2018-02-20T20:50:15.147Z,34.80
2018-02-20T20:52:42.498Z,34.90
2018-02-20T20:55:09.840Z,36.03
2018-02-20T20:57:37.219Z,32.57
2018-02-20T21:00:04.559Z,34.57
2018-02-20T21:02:31.927Z,34.37
2018-02-20T21:04:59.353Z,35.90
2018-02-20T21:07:27.823Z,36.40
2018-02-20T21:09:55.178Z,37.40
2018-02-20T21:12:22.556Z,34.83
2018-02-20T21:14:49.895Z,35.10
2018-02-20T21:17:17.250Z,36.87
2018-02-20T21:19:44.619Z,33.53
2018-02-20T21:22:12.341Z,33.40
2018-02-20T21:24:39.709Z,33.90
2018-02-20T21:27:07.161Z,34.80
2018-02-20T21:29:34.530Z,35.60
2018-02-20T21:32:01.887Z,36.27
2018-02-20T21:34:29.260Z,35.60
2018-02-20T21:36:56.680Z,37.27
2018-02-20T21:39:24.133Z,33.43
2018-02-20T21:41:51.525Z,33.47
2018-02-20T21:44:18.872Z,34.57
2018-02-20T21:46:46.243Z,34.63
2018-02-20T21:49:13.591Z,34.60
2018-02-20T21:51:40.958Z,33.00
2018-02-20T21:54:08.305Z,32.40
2018-02-20T21:56:35.667Z,35.07
2018-02-20T21:59:03.018Z,35.07
2018-02-20T22:01:30.410Z,32.20
2018-02-20T22:03:57.758Z,33.17
2018-02-20T22:06:25.109Z,32.90
2018-02-20T22:08:52.482Z,33.30
2018-02-20T22:11:19.822Z,32.97
2018-02-20T22:13:47.227Z,33.20
2018-02-20T22:16:14.568Z,32.97
2018-02-20T22:18:42.023Z,34.40
2018-02-20T22:21:09.368Z,34.90
2018-02-20T22:23:36.736Z,32.83
2018-02-20T22:26:04.079Z,33.83
2018-02-20T22:28:31.448Z,34.40
2018-02-20T22:30:58.793Z,35.37
2018-02-20T22:33:26.170Z,34.83
2018-02-20T22:35:53.602Z,33.97
2018-02-20T22:38:20.994Z,33.10
2018-02-20T22:40:48.336Z,34.67
2018-02-20T22:43:15.776Z,31.97
2018-02-20T22:45:43.144Z,35.37
2018-02-20T22:48:10.507Z,32.20
2018-02-20T22:50:37.948Z,35.77
2018-02-20T22:53:05.281Z,34.10
2018-02-20T22:55:32.668Z,34.40
2018-02-20T22:58:00.031Z,35.00
2018-02-20T23:00:27.395Z,34.83
2018-02-20T23:02:54.803Z,35.00
2018-02-20T23:05:22.374Z,35.37
2018-02-20T23:07:49.713Z,35.80
2018-02-20T23:10:17.091Z,36.60
2018-02-20T23:12:44.436Z,36.50
2018-02-20T23:15:11.774Z,37.00
2018-02-20T23:17:39.183Z,37.53
2018-02-20T23:20:06.606Z,37.73
2018-02-20T23:22:33.994Z,36.77
2018-02-20T23:25:01.334Z,37.00
2018-02-20T23:27:28.712Z,37.57
2018-02-20T23:29:56.055Z,36.87
2018-02-20T23:32:23.424Z,37.87
2018-02-20T23:34:50.878Z,37.90
2018-02-20T23:37:18.239Z,37.83
2018-02-20T23:39:45.585Z,32.40
2018-02-20T23:42:12.953Z,39.67
2018-02-20T23:44:40.302Z,35.23
2018-02-20T23:47:07.674Z,35.67
2018-02-20T23:49:35.011Z,34.60
2018-02-20T23:52:02.383Z,35.83
2018-02-20T23:54:29.726Z,35.63
2018-02-20T23:56:57.097Z,37.00
2018-02-20T23:59:24.444Z,35.87
